Terminal Aerodrome Forecast
Issued by NWS

Home | Current Version | Previous Version | Text Only | Print | Product List | Glossary On
Versions: 1 2 3 4 5 6 7 8 9 10 11 12 13 14 15 16 17 18 19
000
FTUS44 KHGX 240522
TAFSGR
TAF
KSGR 240522Z 2406/2506 16009KT P6SM SKC
     FM240800 17004KT 6SM BR BKN025
      TEMPO 2409/2412 4SM BR BKN015
     FM241500 21003KT P6SM SCT015
     FM242100 32008G14KT P6SM FEW250=

USA.gov is the U.S. government's official web portal to all federal, state and local government web resources and services.